sensor_id;sensor_type;location;lat;lon;timestamp;temperature;humidity
36652;DHT22;53334;51.976;20.144;2023-06-22T00:02:06;26.60;64.00
36652;DHT22;53334;51.976;20.144;2023-06-22T00:04:40;26.60;64.50
36652;DHT22;53334;51.976;20.144;2023-06-22T00:07:13;26.60;64.70
36652;DHT22;53334;51.976;20.144;2023-06-22T00:09:46;26.60;64.70
36652;DHT22;53334;51.976;20.144;2023-06-22T00:12:21;26.60;64.50
36652;DHT22;53334;51.976;20.144;2023-06-22T00:14:54;26.60;64.50
36652;DHT22;53334;51.976;20.144;2023-06-22T00:17:27;26.60;64.50
36652;DHT22;53334;51.976;20.144;2023-06-22T00:20:01;26.60;64.50
36652;DHT22;53334;51.976;20.144;2023-06-22T00:22:37;26.60;64.50
36652;DHT22;53334;51.976;20.144;2023-06-22T00:25:11;26.60;64.70
36652;DHT22;53334;51.976;20.144;2023-06-22T00:27:46;26.60;64.90
36652;DHT22;53334;51.976;20.144;2023-06-22T00:30:19;26.60;65.00
36652;DHT22;53334;51.976;20.144;2023-06-22T00:32:52;26.60;65.10
36652;DHT22;53334;51.976;20.144;2023-06-22T00:35:26;26.60;64.70
36652;DHT22;53334;51.976;20.144;2023-06-22T00:38:01;26.60;64.90
36652;DHT22;53334;51.976;20.144;2023-06-22T00:40:36;26.60;65.20
36652;DHT22;53334;51.976;20.144;2023-06-22T00:43:11;26.60;65.50
36652;DHT22;53334;51.976;20.144;2023-06-22T00:45:44;26.60;65.90
36652;DHT22;53334;51.976;20.144;2023-06-22T00:48:18;26.60;65.80
36652;DHT22;53334;51.976;20.144;2023-06-22T00:50:52;26.60;65.80
36652;DHT22;53334;51.976;20.144;2023-06-22T00:53:28;26.60;65.80
36652;DHT22;53334;51.976;20.144;2023-06-22T00:56:01;26.60;65.70
36652;DHT22;53334;51.976;20.144;2023-06-22T00:58:36;26.60;65.80
36652;DHT22;53334;51.976;20.144;2023-06-22T01:01:14;26.60;65.80
36652;DHT22;53334;51.976;20.144;2023-06-22T01:03:47;26.60;65.70
36652;DHT22;53334;51.976;20.144;2023-06-22T01:06:28;26.60;65.80
36652;DHT22;53334;51.976;20.144;2023-06-22T01:09:08;26.60;65.90
36652;DHT22;53334;51.976;20.144;2023-06-22T01:11:54;26.60;65.90
36652;DHT22;53334;51.976;20.144;2023-06-22T01:14:35;26.60;65.90
36652;DHT22;53334;51.976;20.144;2023-06-22T01:17:12;26.60;65.90
36652;DHT22;53334;51.976;20.144;2023-06-22T01:19:50;26.60;65.90
36652;DHT22;53334;51.976;20.144;2023-06-22T01:22:31;26.60;65.80
36652;DHT22;53334;51.976;20.144;2023-06-22T01:25:11;26.60;65.70
36652;DHT22;53334;51.976;20.144;2023-06-22T01:27:50;26.60;65.70
36652;DHT22;53334;51.976;20.144;2023-06-22T01:30:28;26.60;65.60
36652;DHT22;53334;51.976;20.144;2023-06-22T01:33:04;26.60;65.70
36652;DHT22;53334;51.976;20.144;2023-06-22T01:35:38;26.60;65.70
36652;DHT22;53334;51.976;20.144;2023-06-22T01:38:13;26.60;65.70
36652;DHT22;53334;51.976;20.144;2023-06-22T01:40:46;26.60;65.60
36652;DHT22;53334;51.976;20.144;2023-06-22T01:43:21;26.60;65.50
36652;DHT22;53334;51.976;20.144;2023-06-22T01:45:59;26.60;65.50
36652;DHT22;53334;51.976;20.144;2023-06-22T01:48:32;26.60;65.60
36652;DHT22;53334;51.976;20.144;2023-06-22T01:51:06;26.60;65.60
36652;DHT22;53334;51.976;20.144;2023-06-22T01:53:40;26.60;65.70
36652;DHT22;53334;51.976;20.144;2023-06-22T01:56:16;26.60;65.60
36652;DHT22;53334;51.976;20.144;2023-06-22T01:58:58;26.60;65.60
36652;DHT22;53334;51.976;20.144;2023-06-22T02:01:38;26.60;65.70
36652;DHT22;53334;51.976;20.144;2023-06-22T02:04:19;26.60;65.60
36652;DHT22;53334;51.976;20.144;2023-06-22T02:06:56;26.60;65.70
36652;DHT22;53334;51.976;20.144;2023-06-22T02:09:31;26.60;65.60
36652;DHT22;53334;51.976;20.144;2023-06-22T02:12:07;26.60;65.50
36652;DHT22;53334;51.976;20.144;2023-06-22T02:14:41;26.60;65.50
36652;DHT22;53334;51.976;20.144;2023-06-22T02:17:17;26.60;65.40
36652;DHT22;53334;51.976;20.144;2023-06-22T02:19:51;26.60;65.30
36652;DHT22;53334;51.976;20.144;2023-06-22T02:22:24;26.60;65.30
36652;DHT22;53334;51.976;20.144;2023-06-22T02:24:57;26.60;65.20
36652;DHT22;53334;51.976;20.144;2023-06-22T02:27:31;26.60;65.30
36652;DHT22;53334;51.976;20.144;2023-06-22T02:30:05;26.60;65.30
36652;DHT22;53334;51.976;20.144;2023-06-22T02:32:40;26.60;65.40
36652;DHT22;53334;51.976;20.144;2023-06-22T02:35:14;26.60;65.30
36652;DHT22;53334;51.976;20.144;2023-06-22T02:37:49;26.60;65.20
36652;DHT22;53334;51.976;20.144;2023-06-22T02:40:23;26.60;65.20
36652;DHT22;53334;51.976;20.144;2023-06-22T02:42:57;26.60;65.10
36652;DHT22;53334;51.976;20.144;2023-06-22T02:45:34;26.60;65.10
36652;DHT22;53334;51.976;20.144;2023-06-22T02:48:10;26.60;65.10
36652;DHT22;53334;51.976;20.144;2023-06-22T02:50:44;26.60;65.10
36652;DHT22;53334;51.976;20.144;2023-06-22T02:53:17;26.60;65.10
36652;DHT22;53334;51.976;20.144;2023-06-22T02:55:51;26.60;65.00
36652;DHT22;53334;51.976;20.144;2023-06-22T02:58:25;26.60;65.00
36652;DHT22;53334;51.976;20.144;2023-06-22T03:00:58;26.60;65.00
36652;DHT22;53334;51.976;20.144;2023-06-22T03:03:39;26.60;65.00
36652;DHT22;53334;51.976;20.144;2023-06-22T03:06:13;26.60;65.00
36652;DHT22;53334;51.976;20.144;2023-06-22T03:08:47;26.60;65.00
36652;DHT22;53334;51.976;20.144;2023-06-22T03:11:20;26.60;65.00
36652;DHT22;53334;51.976;20.144;2023-06-22T03:13:53;26.60;65.00
36652;DHT22;53334;51.976;20.144;2023-06-22T03:16:27;26.60;65.00
36652;DHT22;53334;51.976;20.144;2023-06-22T03:19:03;26.60;64.90
36652;DHT22;53334;51.976;20.144;2023-06-22T03:21:38;26.60;64.90
36652;DHT22;53334;51.976;20.144;2023-06-22T03:24:11;26.60;64.90
36652;DHT22;53334;51.976;20.144;2023-06-22T03:26:44;26.60;64.80
36652;DHT22;53334;51.976;20.144;2023-06-22T03:29:18;26.60;64.80
36652;DHT22;53334;51.976;20.144;2023-06-22T03:31:53;26.60;64.80
36652;DHT22;53334;51.976;20.144;2023-06-22T03:34:28;26.60;64.80
36652;DHT22;53334;51.976;20.144;2023-06-22T03:37:06;26.60;64.80
36652;DHT22;53334;51.976;20.144;2023-06-22T03:39:39;26.60;64.80
36652;DHT22;53334;51.976;20.144;2023-06-22T03:42:13;26.60;64.80
36652;DHT22;53334;51.976;20.144;2023-06-22T03:44:46;26.60;64.70
36652;DHT22;53334;51.976;20.144;2023-06-22T03:47:19;26.60;65.30
36652;DHT22;53334;51.976;20.144;2023-06-22T03:49:54;26.60;64.70
36652;DHT22;53334;51.976;20.144;2023-06-22T03:52:27;26.60;64.60
36652;DHT22;53334;51.976;20.144;2023-06-22T03:55:01;26.60;64.60
36652;DHT22;53334;51.976;20.144;2023-06-22T03:57:36;26.60;64.60
36652;DHT22;53334;51.976;20.144;2023-06-22T04:00:10;26.60;64.60
36652;DHT22;53334;51.976;20.144;2023-06-22T04:02:45;26.60;64.50
36652;DHT22;53334;51.976;20.144;2023-06-22T04:05:20;26.60;64.50
36652;DHT22;53334;51.976;20.144;2023-06-22T04:07:53;26.60;64.50
36652;DHT22;53334;51.976;20.144;2023-06-22T04:10:26;26.60;64.40
36652;DHT22;53334;51.976;20.144;2023-06-22T04:13:00;26.60;64.30
36652;DHT22;53334;51.976;20.144;2023-06-22T04:15:33;26.60;64.30
36652;DHT22;53334;51.976;20.144;2023-06-22T04:18:07;26.60;64.30
36652;DHT22;53334;51.976;20.144;2023-06-22T04:20:41;26.60;64.20
36652;DHT22;53334;51.976;20.144;2023-06-22T04:23:18;26.60;64.20
36652;DHT22;53334;51.976;20.144;2023-06-22T04:25:51;26.60;64.20
36652;DHT22;53334;51.976;20.144;2023-06-22T04:28:24;26.60;64.20
36652;DHT22;53334;51.976;20.144;2023-06-22T04:30:59;26.60;64.20
36652;DHT22;53334;51.976;20.144;2023-06-22T04:33:34;26.60;64.10
36652;DHT22;53334;51.976;20.144;2023-06-22T04:36:09;26.60;64.10
36652;DHT22;53334;51.976;20.144;2023-06-22T04:38:45;26.60;64.10
36652;DHT22;53334;51.976;20.144;2023-06-22T04:41:18;26.60;64.00
36652;DHT22;53334;51.976;20.144;2023-06-22T04:43:56;26.60;64.00
36652;DHT22;53334;51.976;20.144;2023-06-22T04:46:32;26.60;64.00
36652;DHT22;53334;51.976;20.144;2023-06-22T04:49:06;26.60;63.90
36652;DHT22;53334;51.976;20.144;2023-06-22T04:51:43;26.60;64.00
36652;DHT22;53334;51.976;20.144;2023-06-22T04:54:16;26.60;63.90
36652;DHT22;53334;51.976;20.144;2023-06-22T04:56:49;26.60;63.90
36652;DHT22;53334;51.976;20.144;2023-06-22T04:59:29;26.60;63.80
36652;DHT22;53334;51.976;20.144;2023-06-22T05:02:04;26.60;63.80
36652;DHT22;53334;51.976;20.144;2023-06-22T05:04:37;26.60;63.80
36652;DHT22;53334;51.976;20.144;2023-06-22T05:07:13;26.60;63.70
36652;DHT22;53334;51.976;20.144;2023-06-22T05:09:46;26.60;63.70
36652;DHT22;53334;51.976;20.144;2023-06-22T05:12:20;26.60;63.70
36652;DHT22;53334;51.976;20.144;2023-06-22T05:14:53;26.60;63.60
36652;DHT22;53334;51.976;20.144;2023-06-22T05:17:26;26.60;63.60
36652;DHT22;53334;51.976;20.144;2023-06-22T05:20:00;26.60;63.50
36652;DHT22;53334;51.976;20.144;2023-06-22T05:22:35;26.60;63.50
36652;DHT22;53334;51.976;20.144;2023-06-22T05:25:09;26.60;63.50
36652;DHT22;53334;51.976;20.144;2023-06-22T05:27:43;26.60;63.50
36652;DHT22;53334;51.976;20.144;2023-06-22T05:30:16;26.60;63.40
36652;DHT22;53334;51.976;20.144;2023-06-22T05:32:53;26.60;63.50
36652;DHT22;53334;51.976;20.144;2023-06-22T05:35:26;26.60;63.60
36652;DHT22;53334;51.976;20.144;2023-06-22T05:38:01;26.60;63.60
36652;DHT22;53334;51.976;20.144;2023-06-22T05:40:34;26.60;63.40
36652;DHT22;53334;51.976;20.144;2023-06-22T05:43:07;26.60;63.40
36652;DHT22;53334;51.976;20.144;2023-06-22T05:45:41;26.60;63.30
36652;DHT22;53334;51.976;20.144;2023-06-22T05:48:14;26.60;63.20
36652;DHT22;53334;51.976;20.144;2023-06-22T05:50:47;26.60;63.30
36652;DHT22;53334;51.976;20.144;2023-06-22T05:53:22;26.70;63.40
36652;DHT22;53334;51.976;20.144;2023-06-22T05:55:55;26.60;63.40
36652;DHT22;53334;51.976;20.144;2023-06-22T05:58:29;26.60;63.20
36652;DHT22;53334;51.976;20.144;2023-06-22T06:01:02;26.70;63.20
36652;DHT22;53334;51.976;20.144;2023-06-22T06:03:35;26.70;63.40
36652;DHT22;53334;51.976;20.144;2023-06-22T06:06:13;26.70;63.60
36652;DHT22;53334;51.976;20.144;2023-06-22T06:08:47;26.70;63.70
36652;DHT22;53334;51.976;20.144;2023-06-22T06:11:21;26.70;63.40
36652;DHT22;53334;51.976;20.144;2023-06-22T06:13:54;26.70;63.20
36652;DHT22;53334;51.976;20.144;2023-06-22T06:16:27;26.70;63.10
36652;DHT22;53334;51.976;20.144;2023-06-22T06:19:01;26.70;63.60
36652;DHT22;53334;51.976;20.144;2023-06-22T06:21:34;26.70;63.10
36652;DHT22;53334;51.976;20.144;2023-06-22T06:24:09;26.70;63.70
36652;DHT22;53334;51.976;20.144;2023-06-22T06:26:42;26.70;63.30
36652;DHT22;53334;51.976;20.144;2023-06-22T06:29:15;26.70;63.10
36652;DHT22;53334;51.976;20.144;2023-06-22T06:31:49;26.70;62.90
36652;DHT22;53334;51.976;20.144;2023-06-22T06:34:25;26.70;62.70
36652;DHT22;53334;51.976;20.144;2023-06-22T06:36:59;26.70;62.80
36652;DHT22;53334;51.976;20.144;2023-06-22T06:39:33;26.80;62.80
36652;DHT22;53334;51.976;20.144;2023-06-22T06:42:07;26.80;62.70
36652;DHT22;53334;51.976;20.144;2023-06-22T06:44:40;26.80;62.80
36652;DHT22;53334;51.976;20.144;2023-06-22T06:47:14;26.80;62.40
36652;DHT22;53334;51.976;20.144;2023-06-22T06:49:47;26.80;62.20
36652;DHT22;53334;51.976;20.144;2023-06-22T06:52:20;26.80;62.00
36652;DHT22;53334;51.976;20.144;2023-06-22T06:54:55;26.80;61.80
36652;DHT22;53334;51.976;20.144;2023-06-22T06:57:28;26.80;62.30
36652;DHT22;53334;51.976;20.144;2023-06-22T07:00:02;26.80;61.50
36652;DHT22;53334;51.976;20.144;2023-06-22T07:02:40;26.80;61.40
36652;DHT22;53334;51.976;20.144;2023-06-22T07:05:14;26.80;61.40
36652;DHT22;53334;51.976;20.144;2023-06-22T07:07:47;26.80;61.20
36652;DHT22;53334;51.976;20.144;2023-06-22T07:10:22;26.80;61.00
36652;DHT22;53334;51.976;20.144;2023-06-22T07:12:55;26.80;61.20
36652;DHT22;53334;51.976;20.144;2023-06-22T07:15:29;26.80;60.40
36652;DHT22;53334;51.976;20.144;2023-06-22T07:18:03;26.80;60.20
36652;DHT22;53334;51.976;20.144;2023-06-22T07:20:36;26.80;60.30
36652;DHT22;53334;51.976;20.144;2023-06-22T07:23:11;26.90;60.20
36652;DHT22;53334;51.976;20.144;2023-06-22T07:25:45;26.90;59.70
36652;DHT22;53334;51.976;20.144;2023-06-22T07:28:19;26.80;59.30
36652;DHT22;53334;51.976;20.144;2023-06-22T07:30:52;26.90;59.10
36652;DHT22;53334;51.976;20.144;2023-06-22T07:33:25;26.90;58.90
36652;DHT22;53334;51.976;20.144;2023-06-22T07:35:59;26.90;58.90
36652;DHT22;53334;51.976;20.144;2023-06-22T07:38:33;26.90;58.80
36652;DHT22;53334;51.976;20.144;2023-06-22T07:41:08;26.90;58.60
36652;DHT22;53334;51.976;20.144;2023-06-22T07:43:41;26.90;58.30
36652;DHT22;53334;51.976;20.144;2023-06-22T07:46:14;26.80;57.20
36652;DHT22;53334;51.976;20.144;2023-06-22T07:48:48;26.80;57.10
36652;DHT22;53334;51.976;20.144;2023-06-22T07:51:21;26.70;56.00
36652;DHT22;53334;51.976;20.144;2023-06-22T07:53:54;26.60;55.80
36652;DHT22;53334;51.976;20.144;2023-06-22T07:56:29;26.50;54.50
36652;DHT22;53334;51.976;20.144;2023-06-22T07:59:03;26.40;53.70
36652;DHT22;53334;51.976;20.144;2023-06-22T08:01:36;26.30;53.20
36652;DHT22;53334;51.976;20.144;2023-06-22T08:04:09;26.20;52.70
36652;DHT22;53334;51.976;20.144;2023-06-22T08:06:43;26.10;52.60
36652;DHT22;53334;51.976;20.144;2023-06-22T08:09:16;26.10;53.20
36652;DHT22;53334;51.976;20.144;2023-06-22T08:11:51;26.10;52.50
36652;DHT22;53334;51.976;20.144;2023-06-22T08:14:25;26.10;52.80
36652;DHT22;53334;51.976;20.144;2023-06-22T08:16:58;26.20;53.10
36652;DHT22;53334;51.976;20.144;2023-06-22T08:19:32;26.20;53.30
36652;DHT22;53334;51.976;20.144;2023-06-22T08:22:05;26.20;53.00
36652;DHT22;53334;51.976;20.144;2023-06-22T08:24:39;26.20;53.20
36652;DHT22;53334;51.976;20.144;2023-06-22T08:27:13;26.20;53.10
36652;DHT22;53334;51.976;20.144;2023-06-22T08:29:48;26.20;52.90
36652;DHT22;53334;51.976;20.144;2023-06-22T08:32:22;26.20;52.90
36652;DHT22;53334;51.976;20.144;2023-06-22T08:34:56;26.20;52.90
36652;DHT22;53334;51.976;20.144;2023-06-22T08:37:30;26.20;53.50
36652;DHT22;53334;51.976;20.144;2023-06-22T08:40:04;26.20;52.70
36652;DHT22;53334;51.976;20.144;2023-06-22T08:42:41;26.20;52.60
36652;DHT22;53334;51.976;20.144;2023-06-22T08:45:15;26.20;52.00
36652;DHT22;53334;51.976;20.144;2023-06-22T08:47:48;26.20;51.80
36652;DHT22;53334;51.976;20.144;2023-06-22T08:50:21;26.20;51.80
36652;DHT22;53334;51.976;20.144;2023-06-22T08:52:55;26.20;52.00
36652;DHT22;53334;51.976;20.144;2023-06-22T08:55:30;26.20;52.10
36652;DHT22;53334;51.976;20.144;2023-06-22T08:58:05;26.20;51.80
36652;DHT22;53334;51.976;20.144;2023-06-22T09:00:38;26.20;51.90
36652;DHT22;53334;51.976;20.144;2023-06-22T09:03:12;26.20;51.40
36652;DHT22;53334;51.976;20.144;2023-06-22T09:05:45;26.30;51.70
36652;DHT22;53334;51.976;20.144;2023-06-22T09:08:18;26.30;52.00
36652;DHT22;53334;51.976;20.144;2023-06-22T09:10:52;26.30;52.00
36652;DHT22;53334;51.976;20.144;2023-06-22T09:13:27;26.30;51.00
36652;DHT22;53334;51.976;20.144;2023-06-22T09:16:01;26.40;50.70
36652;DHT22;53334;51.976;20.144;2023-06-22T09:18:34;26.40;51.00
36652;DHT22;53334;51.976;20.144;2023-06-22T09:21:08;26.40;50.90
36652;DHT22;53334;51.976;20.144;2023-06-22T09:23:42;26.50;51.20
36652;DHT22;53334;51.976;20.144;2023-06-22T09:26:17;26.50;51.10
36652;DHT22;53334;51.976;20.144;2023-06-22T09:28:52;26.50;51.10
36652;DHT22;53334;51.976;20.144;2023-06-22T09:31:26;26.50;51.00
36652;DHT22;53334;51.976;20.144;2023-06-22T09:33:59;26.60;51.10
36652;DHT22;53334;51.976;20.144;2023-06-22T09:36:32;26.60;51.20
36652;DHT22;53334;51.976;20.144;2023-06-22T09:39:06;26.60;51.10
36652;DHT22;53334;51.976;20.144;2023-06-22T09:41:39;26.60;51.10
36652;DHT22;53334;51.976;20.144;2023-06-22T09:44:13;26.60;51.20
36652;DHT22;53334;51.976;20.144;2023-06-22T09:46:47;26.60;51.10
36652;DHT22;53334;51.976;20.144;2023-06-22T09:49:20;26.70;51.10
36652;DHT22;53334;51.976;20.144;2023-06-22T09:52:37;26.70;51.10
36652;DHT22;53334;51.976;20.144;2023-06-22T09:55:14;26.70;51.00
36652;DHT22;53334;51.976;20.144;2023-06-22T09:57:48;26.70;51.00
36652;DHT22;53334;51.976;20.144;2023-06-22T10:00:23;26.70;50.90
36652;DHT22;53334;51.976;20.144;2023-06-22T10:02:58;26.80;50.90
36652;DHT22;53334;51.976;20.144;2023-06-22T10:05:33;26.80;50.80
36652;DHT22;53334;51.976;20.144;2023-06-22T10:08:06;26.80;50.70
36652;DHT22;53334;51.976;20.144;2023-06-22T10:10:41;26.90;50.70
36652;DHT22;53334;51.976;20.144;2023-06-22T10:13:15;26.80;50.50
36652;DHT22;53334;51.976;20.144;2023-06-22T10:15:49;26.90;50.40
36652;DHT22;53334;51.976;20.144;2023-06-22T10:18:24;26.90;50.80
36652;DHT22;53334;51.976;20.144;2023-06-22T10:20:57;26.90;50.10
36652;DHT22;53334;51.976;20.144;2023-06-22T10:23:30;26.90;50.10
36652;DHT22;53334;51.976;20.144;2023-06-22T10:26:05;27.00;50.10
36652;DHT22;53334;51.976;20.144;2023-06-22T10:28:38;27.00;49.90
36652;DHT22;53334;51.976;20.144;2023-06-22T10:31:13;27.00;50.40
36652;DHT22;53334;51.976;20.144;2023-06-22T10:33:47;27.00;49.70
36652;DHT22;53334;51.976;20.144;2023-06-22T10:36:22;27.00;49.70
36652;DHT22;53334;51.976;20.144;2023-06-22T10:38:55;27.10;49.50
36652;DHT22;53334;51.976;20.144;2023-06-22T10:41:31;27.10;49.50
36652;DHT22;53334;51.976;20.144;2023-06-22T10:44:04;27.10;49.60
36652;DHT22;53334;51.976;20.144;2023-06-22T10:46:42;27.10;49.60
36652;DHT22;53334;51.976;20.144;2023-06-22T10:49:15;27.10;49.50
36652;DHT22;53334;51.976;20.144;2023-06-22T10:51:48;27.10;49.40
36652;DHT22;53334;51.976;20.144;2023-06-22T10:54:21;27.10;49.40
36652;DHT22;53334;51.976;20.144;2023-06-22T10:56:54;27.10;49.30
36652;DHT22;53334;51.976;20.144;2023-06-22T10:59:28;27.10;49.20
36652;DHT22;53334;51.976;20.144;2023-06-22T11:02:03;27.10;49.20
36652;DHT22;53334;51.976;20.144;2023-06-22T11:04:36;27.20;49.20
36652;DHT22;53334;51.976;20.144;2023-06-22T11:07:10;27.20;49.20
36652;DHT22;53334;51.976;20.144;2023-06-22T11:09:43;27.20;49.20
36652;DHT22;53334;51.976;20.144;2023-06-22T11:12:17;27.20;49.10
36652;DHT22;53334;51.976;20.144;2023-06-22T11:14:50;27.20;48.90
36652;DHT22;53334;51.976;20.144;2023-06-22T11:17:25;27.20;48.80
36652;DHT22;53334;51.976;20.144;2023-06-22T11:19:58;27.20;48.60
36652;DHT22;53334;51.976;20.144;2023-06-22T11:22:32;27.30;48.40
36652;DHT22;53334;51.976;20.144;2023-06-22T11:25:06;27.20;48.70
36652;DHT22;53334;51.976;20.144;2023-06-22T11:27:39;27.20;48.80
36652;DHT22;53334;51.976;20.144;2023-06-22T11:30:13;27.20;48.50
36652;DHT22;53334;51.976;20.144;2023-06-22T11:32:47;27.20;48.30
36652;DHT22;53334;51.976;20.144;2023-06-22T11:35:21;27.30;47.90
36652;DHT22;53334;51.976;20.144;2023-06-22T11:37:54;27.20;47.70
36652;DHT22;53334;51.976;20.144;2023-06-22T11:40:29;27.20;47.50
36652;DHT22;53334;51.976;20.144;2023-06-22T11:43:02;27.20;47.70
36652;DHT22;53334;51.976;20.144;2023-06-22T11:45:35;27.20;47.70
36652;DHT22;53334;51.976;20.144;2023-06-22T11:48:10;27.10;46.80
36652;DHT22;53334;51.976;20.144;2023-06-22T11:50:43;27.10;46.80
36652;DHT22;53334;51.976;20.144;2023-06-22T11:53:17;27.10;46.60
36652;DHT22;53334;51.976;20.144;2023-06-22T11:55:50;27.10;46.60
36652;DHT22;53334;51.976;20.144;2023-06-22T11:58:24;27.10;46.40
36652;DHT22;53334;51.976;20.144;2023-06-22T12:00:57;27.10;46.20
36652;DHT22;53334;51.976;20.144;2023-06-22T12:03:32;27.10;46.80
36652;DHT22;53334;51.976;20.144;2023-06-22T12:06:06;27.10;46.50
36652;DHT22;53334;51.976;20.144;2023-06-22T12:08:39;27.20;46.60
36652;DHT22;53334;51.976;20.144;2023-06-22T12:11:12;27.20;46.60
36652;DHT22;53334;51.976;20.144;2023-06-22T12:13:45;27.20;46.60
36652;DHT22;53334;51.976;20.144;2023-06-22T12:16:18;27.10;46.60
36652;DHT22;53334;51.976;20.144;2023-06-22T12:18:54;27.10;46.70
36652;DHT22;53334;51.976;20.144;2023-06-22T12:21:28;27.10;46.70
36652;DHT22;53334;51.976;20.144;2023-06-22T12:24:01;27.20;46.70
36652;DHT22;53334;51.976;20.144;2023-06-22T12:26:34;27.20;46.70
36652;DHT22;53334;51.976;20.144;2023-06-22T12:29:08;27.20;46.70
36652;DHT22;53334;51.976;20.144;2023-06-22T12:31:41;27.10;46.50
36652;DHT22;53334;51.976;20.144;2023-06-22T12:34:15;27.20;46.50
36652;DHT22;53334;51.976;20.144;2023-06-22T12:36:49;27.20;46.50
36652;DHT22;53334;51.976;20.144;2023-06-22T12:39:22;27.20;46.50
36652;DHT22;53334;51.976;20.144;2023-06-22T12:41:55;27.20;46.40
36652;DHT22;53334;51.976;20.144;2023-06-22T12:44:28;27.20;46.50
36652;DHT22;53334;51.976;20.144;2023-06-22T12:47:02;27.20;46.60
36652;DHT22;53334;51.976;20.144;2023-06-22T12:49:36;27.20;46.80
36652;DHT22;53334;51.976;20.144;2023-06-22T12:52:10;27.20;46.90
36652;DHT22;53334;51.976;20.144;2023-06-22T12:54:43;27.20;46.90
36652;DHT22;53334;51.976;20.144;2023-06-22T12:57:26;27.20;46.90
36652;DHT22;53334;51.976;20.144;2023-06-22T12:59:59;27.30;47.10
36652;DHT22;53334;51.976;20.144;2023-06-22T13:02:33;27.30;47.00
36652;DHT22;53334;51.976;20.144;2023-06-22T13:05:08;27.20;46.80
36652;DHT22;53334;51.976;20.144;2023-06-22T13:07:42;27.30;46.80
36652;DHT22;53334;51.976;20.144;2023-06-22T13:10:15;27.30;46.80
36652;DHT22;53334;51.976;20.144;2023-06-22T13:12:48;27.30;46.70
36652;DHT22;53334;51.976;20.144;2023-06-22T13:15:21;27.30;46.80
36652;DHT22;53334;51.976;20.144;2023-06-22T13:17:55;27.30;46.70
36652;DHT22;53334;51.976;20.144;2023-06-22T13:20:30;27.30;46.50
36652;DHT22;53334;51.976;20.144;2023-06-22T13:23:03;27.30;46.40
36652;DHT22;53334;51.976;20.144;2023-06-22T13:25:36;27.30;46.40
36652;DHT22;53334;51.976;20.144;2023-06-22T13:28:10;27.30;46.50
36652;DHT22;53334;51.976;20.144;2023-06-22T13:30:59;27.30;46.60
36652;DHT22;53334;51.976;20.144;2023-06-22T13:33:32;27.30;46.50
36652;DHT22;53334;51.976;20.144;2023-06-22T13:36:07;27.30;46.40
36652;DHT22;53334;51.976;20.144;2023-06-22T13:38:40;27.30;46.30
36652;DHT22;53334;51.976;20.144;2023-06-22T13:41:13;27.30;46.30
36652;DHT22;53334;51.976;20.144;2023-06-22T13:43:47;27.30;46.10
36652;DHT22;53334;51.976;20.144;2023-06-22T13:46:20;27.30;46.00
36652;DHT22;53334;51.976;20.144;2023-06-22T13:48:53;27.30;46.10
36652;DHT22;53334;51.976;20.144;2023-06-22T13:51:29;27.30;46.10
36652;DHT22;53334;51.976;20.144;2023-06-22T13:54:03;27.30;46.60
36652;DHT22;53334;51.976;20.144;2023-06-22T13:56:40;27.30;46.00
36652;DHT22;53334;51.976;20.144;2023-06-22T13:59:14;27.30;46.10
36652;DHT22;53334;51.976;20.144;2023-06-22T14:01:47;27.30;46.30
36652;DHT22;53334;51.976;20.144;2023-06-22T14:04:22;27.30;46.50
36652;DHT22;53334;51.976;20.144;2023-06-22T14:06:57;27.30;46.50
36652;DHT22;53334;51.976;20.144;2023-06-22T14:09:30;27.30;46.60
36652;DHT22;53334;51.976;20.144;2023-06-22T14:12:04;27.30;46.50
36652;DHT22;53334;51.976;20.144;2023-06-22T14:14:38;27.30;46.40
36652;DHT22;53334;51.976;20.144;2023-06-22T14:17:11;27.30;46.30
36652;DHT22;53334;51.976;20.144;2023-06-22T14:19:44;27.30;46.40
36652;DHT22;53334;51.976;20.144;2023-06-22T14:22:19;27.30;46.50
36652;DHT22;53334;51.976;20.144;2023-06-22T14:24:52;27.30;46.60
36652;DHT22;53334;51.976;20.144;2023-06-22T14:27:30;27.30;46.60
36652;DHT22;53334;51.976;20.144;2023-06-22T14:30:05;27.30;46.70
36652;DHT22;53334;51.976;20.144;2023-06-22T14:32:38;27.30;46.80
36652;DHT22;53334;51.976;20.144;2023-06-22T14:35:12;27.30;46.90
36652;DHT22;53334;51.976;20.144;2023-06-22T14:37:47;27.30;46.80
36652;DHT22;53334;51.976;20.144;2023-06-22T14:40:21;27.30;46.90
36652;DHT22;53334;51.976;20.144;2023-06-22T14:42:57;27.30;46.80
36652;DHT22;53334;51.976;20.144;2023-06-22T14:45:31;27.30;46.80
36652;DHT22;53334;51.976;20.144;2023-06-22T14:48:04;27.30;46.90
36652;DHT22;53334;51.976;20.144;2023-06-22T14:50:37;27.30;46.90
36652;DHT22;53334;51.976;20.144;2023-06-22T14:53:12;27.30;47.00
36652;DHT22;53334;51.976;20.144;2023-06-22T14:55:46;27.30;47.10
36652;DHT22;53334;51.976;20.144;2023-06-22T14:58:19;27.30;47.10
36652;DHT22;53334;51.976;20.144;2023-06-22T15:00:52;27.30;47.20
36652;DHT22;53334;51.976;20.144;2023-06-22T15:03:26;27.30;47.20
36652;DHT22;53334;51.976;20.144;2023-06-22T15:06:01;27.30;47.30
36652;DHT22;53334;51.976;20.144;2023-06-22T15:08:36;27.30;47.40
36652;DHT22;53334;51.976;20.144;2023-06-22T15:11:10;27.30;47.40
36652;DHT22;53334;51.976;20.144;2023-06-22T15:13:43;27.30;47.50
36652;DHT22;53334;51.976;20.144;2023-06-22T15:16:17;27.30;47.50
36652;DHT22;53334;51.976;20.144;2023-06-22T15:18:50;27.20;47.50
36652;DHT22;53334;51.976;20.144;2023-06-22T15:21:23;27.30;47.70
36652;DHT22;53334;51.976;20.144;2023-06-22T15:23:58;27.20;47.70
36652;DHT22;53334;51.976;20.144;2023-06-22T15:26:31;27.20;47.80
36652;DHT22;53334;51.976;20.144;2023-06-22T15:29:04;27.20;47.80
36652;DHT22;53334;51.976;20.144;2023-06-22T15:31:38;27.20;48.10
36652;DHT22;53334;51.976;20.144;2023-06-22T15:34:13;27.20;48.00
36652;DHT22;53334;51.976;20.144;2023-06-22T15:36:46;27.20;48.10
36652;DHT22;53334;51.976;20.144;2023-06-22T15:39:23;27.20;48.70
36652;DHT22;53334;51.976;20.144;2023-06-22T15:41:58;27.20;48.20
36652;DHT22;53334;51.976;20.144;2023-06-22T15:44:31;27.20;48.30
36652;DHT22;53334;51.976;20.144;2023-06-22T15:47:05;27.20;48.30
36652;DHT22;53334;51.976;20.144;2023-06-22T15:49:38;27.20;48.40
36652;DHT22;53334;51.976;20.144;2023-06-22T15:52:12;27.20;48.40
36652;DHT22;53334;51.976;20.144;2023-06-22T15:54:46;27.10;49.00
36652;DHT22;53334;51.976;20.144;2023-06-22T15:57:20;27.20;48.60
36652;DHT22;53334;51.976;20.144;2023-06-22T15:59:54;27.10;48.60